This demonstration page uses our WeatherBlox Daily Observations layout. Learn more.

Left ArrowRight Arrow

30.21309, -93.2044

Hourly Observations for October 4, 2015

Temp ( °F °C ) Dew Point ( °F °C ) Humidity (%) Winds ( mph kmh ) Pressure ( in mb ) Visibility ( mi km ) Precip ( " mm )
12:15 am 00:15 Clear 60 15.6 54 12 79 79 ENE 6 9 N/A 10 16 0.00 0.00
12:35 am 00:35 Clear 59 15 53 11.9 82 82 ENE 5 7 N/A 10 16 0.00 0.00
12:55 am 00:55 Clear 59 15.1 53 11.6 80 80 ENE 7 11 N/A 10 16 0.00 0.00
1:15 am 01:15 Clear 58 14.7 53 11.5 81 81 ENE 6 9 N/A 10 16 0.00 0.00
1:35 am 01:35 Clear 58 14.4 53 11.6 83 83 ENE 3 6 N/A 10 16 0.00 0.00
1:55 am 01:55 Clear 57 14.1 53 11.5 84 84 ENE 5 7 N/A 10 16 0.00 0.00
2:15 am 02:15 Clear 57 13.7 53 11.5 87 87 Calm N/A 10 16 0.00 0.00
2:35 am 02:35 Clear 56 13.5 53 11.5 88 88 NE 3 6 N/A 10 16 0.00 0.00
2:55 am 02:55 Clear 56 13.5 52 11.2 86 86 NE 3 6 N/A 10 16 0.00 0.00
3:15 am 03:15 Clear 56 13.5 52 11.1 86 86 NNE 5 7 N/A 10 16 0.00 0.00
3:35 am 03:35 Clear 55 12.6 52 11 90 90 N 5 7 N/A 10 16 0.00 0.00
3:55 am 03:55 Clear 55 12.8 51 10.8 88 88 NNE 3 6 N/A 10 16 0.00 0.00
4:15 am 04:15 Clear 55 12.6 51 10.5 87 87 NNE 3 6 N/A 10 16 0.00 0.00
4:35 am 04:35 Clear 54 12.4 51 10.4 88 88 NNE 3 6 N/A 10 16 0.00 0.00
4:55 am 04:55 Clear 54 12.2 51 10.5 89 89 Calm N/A 10 16 0.00 0.00
5:15 am 05:15 Clear 54 12 51 10.5 91 91 Calm N/A 10 16 0.00 0.00
6:00 am 06:00 Mostly Clear 54 12 50 10 88 88 NNE 3 6 29.91 1013 10 16 0.00 0.00
6:50 am 06:50 Mostly Clear 54 12 50 10 88 88 NNE 3 6 29.94 1014 10 16 0.00 0.00
7:50 am 07:50 Mostly Sunny 54 12 50 10 88 88 N 6 9 29.97 1015 10 16 0.00 0.00
8:50 am 08:50 Mostly Sunny 55 13 52 11 88 88 N 6 9 30.00 1016 10 16 0.00 0.00
9:50 am 09:50 Mostly Sunny 61 16 52 11 72 72 N 6 9 30.00 1016 10 16 0.00 0.00
10:50 am 10:50 Mostly Sunny 63 17 52 11 68 68 NW 10 17 29.97 1015 10 16 0.00 0.00
11:50 am 11:50 Mostly Sunny 63 17 54 12 73 73 N 13 20 29.97 1015 10 16 0.00 0.00
12:50 pm 12:50 Mostly Sunny 68 20 54 12 60 60 N 13 20 29.94 1014 10 16 0.00 0.00
1:50 pm 13:50 Mostly Sunny 72 22 54 12 53 53 N 10 17 29.94 1014 10 16 0.00 0.00
9:50 pm 21:50 Mostly Clear 61 16 55 13 83 83 NE 5 7 29.97 1015 10 16 0.00 0.00
10:15 pm 22:15 Clear 60 15.7 55 12.5 81 81 NE 7 11 N/A 10 16 0.00 0.00
10:35 pm 22:35 Clear 60 15.7 54 12.4 81 81 NE 7 11 N/A 10 16 0.00 0.00
10:55 pm 22:55 Clear 60 15.6 54 12.3 81 81 NE 7 11 N/A 10 16 0.00 0.00
11:15 pm 23:15 Clear 60 15.5 54 12.3 81 81 NE 5 7 N/A 10 16 0.00 0.00
11:35 pm 23:35 Clear 59 15.2 54 12.4 84 84 NNE 3 6 N/A 10 16 0.00 0.00
11:55 pm 23:55 Clear 59 15 54 12.3 84 84 Calm N/A 10 16 0.00 0.00

Powered by AerisWeather